Time;durP1;ratioP1;P1;durP2;ratioP2;P2;SDS_P1;SDS_P2;PMS_P1;PMS_P2;Temp;Humidity;BMP_temperature;BMP_pressure;BME280_temperature;BME280_humidity;BME280_pressure;Samples;Min_cycle;Max_cycle;Signal;HPM_P1;HPM_P2
2022/02/08 15:48:23;;;;;;;;;;;11.80;78.30;;;;;;5090013;27;20780;-59
2022/02/08 15:51:03;;;;;;;3.92;0.88;;;11.80;79.00;;;;;;5074104;28;19920;-59
2022/02/08 15:53:57;;;;;;;5.18;1.20;;;11.80;78.90;;;;;;5067955;28;20060;-62
2022/02/08 16:14:57;;;;;;;5.25;1.58;;;12.00;78.10;;;;;;5069070;28;20044;-52
2022/02/08 16:56:52;;;;;;;4.35;1.70;;;12.00;77.20;;;;;;5067576;28;20041;-61
2022/02/08 16:59:02;;;;;;;2.90;1.40;;;12.00;77.10;;;;;;5052233;28;20045;-60
2022/02/08 17:01:30;;;;;;;5.50;1.48;;;11.90;77.00;;;;;;5055435;28;20041;-61
2022/02/08 17:03:58;;;;;;;10.38;7.32;;;12.00;77.40;;;;;;5055397;28;20047;-58
2022/02/08 17:06:26;;;;;;;8.48;3.03;;;12.00;77.30;;;;;;5055368;28;20045;-55
2022/02/08 17:09:04;;;;;;;9.88;3.60;;;11.90;77.10;;;;;;5055249;28;20443;-56
2022/02/08 17:11:39;;;;;;;3.60;1.58;;;11.90;77.20;;;;;;5055777;28;20059;-56
2022/02/08 17:47:33;;;;;;;6.57;2.08;;;11.70;77.60;;;;;;5063591;28;20057;-58
2022/02/08 17:49:21;;;;;;;4.10;1.92;;;11.70;77.90;;;;;;5050228;28;20063;-56
2022/02/08 17:51:47;;;;;;;9.07;2.38;;;11.70;78.40;;;;;;5055490;28;20433;-60
2022/02/08 17:54:14;;;;;;;8.25;2.00;;;11.70;77.50;;;;;;5053844;28;20108;-59
2022/02/08 17:56:43;;;;;;;7.50;2.50;;;11.60;77.20;;;;;;5052585;28;20037;-57
2022/02/08 17:59:10;;;;;;;6.18;2.60;;;11.60;77.60;;;;;;5053841;28;20067;-56
2022/02/08 18:01:36;;;;;;;15.95;5.15;;;11.60;77.60;;;;;;5052675;28;20522;-55
2022/02/08 18:04:04;;;;;;;9.82;3.70;;;11.60;77.20;;;;;;5058216;28;20040;-56
2022/02/08 18:06:30;;;;;;;6.35;2.10;;;11.60;77.10;;;;;;5053392;28;20032;-58
2022/02/08 18:08:57;;;;;;;5.28;2.05;;;11.60;77.10;;;;;;5053479;28;20103;-57
2022/02/08 18:11:29;;;;;;;6.28;1.90;;;11.60;76.90;;;;;;5052420;28;20044;-63
2022/02/08 18:13:55;;;;;;;3.35;1.48;;;11.60;76.90;;;;;;5054048;28;20488;-58
2022/02/08 18:16:23;;;;;;;5.55;1.73;;;11.60;76.70;;;;;;5054972;28;20110;-56
2022/02/08 18:18:50;;;;;;;7.10;2.08;;;11.60;77.00;;;;;;5054942;28;20032;-61
2022/02/08 18:21:26;;;;;;;7.30;2.20;;;11.60;76.50;;;;;;5053953;28;20419;-59
2022/02/08 18:57:11;;;;;;;14.38;4.25;;;11.40;79.60;;;;;;5053273;28;20044;-58
2022/02/08 19:11:22;;;;;;;11.48;2.90;;;11.40;82.30;;;;;;5055949;28;20052;-60
2022/02/08 19:23:43;;;;;;;6.05;2.03;;;11.20;84.10;;;;;;5041593;28;20056;-58
2022/02/08 19:26:12;;;;;;;9.30;4.07;;;11.20;84.40;;;;;;5052930;28;20091;-60
2022/02/08 19:28:39;;;;;;;9.90;3.08;;;11.30;84.60;;;;;;5052774;28;20048;-61
2022/02/08 19:31:05;;;;;;;6.35;2.70;;;11.30;84.60;;;;;;5053600;28;20069;-58
2022/02/08 19:33:32;;;;;;;7.82;3.05;;;11.20;84.50;;;;;;5050762;28;20041;-61
2022/02/08 19:35:59;;;;;;;8.93;3.22;;;11.20;84.60;;;;;;5050904;28;20496;-59
2022/02/08 19:38:27;;;;;;;7.05;3.00;;;11.20;84.70;;;;;;5050655;28;20049;-52
2022/02/08 19:40:53;;;;;;;5.80;2.40;;;11.20;84.60;;;;;;5050726;28;20076;-59
2022/02/08 19:43:20;;;;;;;11.15;2.75;;;11.20;84.40;;;;;;5050742;28;20499;-59
2022/02/08 19:45:47;;;;;;;6.07;2.83;;;11.20;84.60;;;;;;5049324;28;20045;-56
2022/02/08 19:48:14;;;;;;;5.15;2.38;;;11.20;84.60;;;;;;5051241;28;20404;-58
2022/02/08 19:50:47;;;;;;;7.57;2.83;;;11.20;84.60;;;;;;5048533;28;20480;-54
2022/02/08 19:53:14;;;;;;;6.85;2.55;;;11.20;84.60;;;;;;5052690;28;20102;-58
2022/02/08 19:56:02;;;;;;;7.45;2.60;;;11.10;84.80;;;;;;5052700;28;20068;-61
2022/02/08 19:58:30;;;;;;;9.45;2.42;;;11.10;84.80;;;;;;5052478;28;20552;-59
2022/02/08 20:01:05;;;;;;;8.95;3.00;;;11.10;84.80;;;;;;5052466;28;20048;-56
2022/02/08 20:03:37;;;;;;;9.00;3.15;;;11.10;85.00;;;;;;5052756;28;20037;-57
2022/02/08 20:06:03;;;;;;;5.75;2.47;;;11.10;85.10;;;;;;5051220;28;20503;-61
2022/02/08 20:08:30;;;;;;;7.40;2.28;;;11.10;85.00;;;;;;5052162;28;20045;-60
2022/02/08 20:10:57;;;;;;;8.55;2.25;;;11.10;85.00;;;;;;5046027;28;20041;-62
2022/02/08 20:13:24;;;;;;;7.70;2.45;;;11.10;85.20;;;;;;5045857;28;20037;-59
2022/02/08 20:15:51;;;;;;;8.48;2.47;;;11.10;85.40;;;;;;5052659;28;20437;-57
2022/02/08 20:18:18;;;;;;;6.45;2.22;;;11.00;85.40;;;;;;5052728;28;20511;-61
2022/02/08 20:20:45;;;;;;;6.00;2.10;;;11.00;85.40;;;;;;5052534;28;20152;-54
2022/02/08 20:23:13;;;;;;;7.95;2.13;;;11.00;85.60;;;;;;5052289;28;20519;-61
2022/02/08 20:25:47;;;;;;;7.88;2.60;;;11.00;85.50;;;;;;5052166;28;20041;-61
2022/02/08 20:28:20;;;;;;;7.50;2.63;;;10.90;85.60;;;;;;5052020;28;20041;-55
2022/02/08 20:30:46;;;;;;;6.47;2.20;;;11.00;85.80;;;;;;5052347;28;20433;-58
2022/02/08 20:33:13;;;;;;;7.50;3.10;;;10.90;85.90;;;;;;5052737;28;20048;-58
2022/02/08 20:35:40;;;;;;;5.07;2.08;;;10.90;86.20;;;;;;5054662;28;20037;-55
2022/02/08 20:38:07;;;;;;;5.68;2.00;;;10.90;86.80;;;;;;5055873;28;20497;-59
2022/02/08 20:40:37;;;;;;;5.75;2.20;;;10.90;87.10;;;;;;5055851;28;20140;-60
2022/02/08 20:43:05;;;;;;;11.00;2.20;;;10.80;87.50;;;;;;5056113;28;20389;-55
2022/02/08 20:45:32;;;;;;;11.82;2.30;;;10.80;87.90;;;;;;5055721;28;20566;-57
2022/02/08 20:48:01;;;;;;;5.45;1.70;;;10.80;88.30;;;;;;5055405;28;20049;-59
2022/02/08 20:50:27;;;;;;;8.80;2.22;;;10.80;88.60;;;;;;5058903;28;20044;-56
2022/02/08 20:53:06;;;;;;;7.25;2.15;;;10.70;88.90;;;;;;5055735;28;20037;-55
2022/02/08 20:56:09;;;;;;;7.55;2.13;;;10.70;89.30;;;;;;5055830;28;20045;-59
2022/02/08 20:58:48;;;;;;;3.85;1.50;;;10.70;89.60;;;;;;5053607;28;20057;-61
2022/02/08 21:01:13;;;;;;;8.77;2.25;;;10.70;89.70;;;;;;5055633;28;20045;-56
2022/02/08 21:04:01;;;;;;;8.57;2.08;;;10.60;89.60;;;;;;5055889;28;20045;-56
2022/02/08 21:06:28;;;;;;;9.02;2.03;;;10.70;89.70;;;;;;5055385;28;20041;-61
2022/02/08 21:08:55;;;;;;;8.68;2.15;;;10.70;89.80;;;;;;5055375;28;20041;-59
2022/02/08 21:11:33;;;;;;;7.47;1.70;;;10.60;89.70;;;;;;5054064;28;20048;-62
2022/02/08 21:14:06;;;;;;;8.02;2.20;;;10.60;89.70;;;;;;5055462;28;20407;-53
2022/02/08 21:16:35;;;;;;;6.97;1.77;;;10.60;89.70;;;;;;5055100;28;20427;-54
2022/02/08 21:19:05;;;;;;;5.65;1.90;;;10.60;89.70;;;;;;5055254;28;20124;-53
2022/02/08 21:21:31;;;;;;;6.28;1.90;;;10.60;89.70;;;;;;5055093;28;20040;-58
2022/02/08 21:23:58;;;;;;;9.38;1.63;;;10.60;89.70;;;;;;5055119;28;20045;-61
2022/02/08 21:26:29;;;;;;;5.43;1.60;;;10.60;89.70;;;;;;5055229;28;20102;-59
2022/02/08 21:49:52;;;;;;;;;;;10.40;90.80;;;;;;5060396;28;20044;-63
2022/02/08 21:54:46;;;;;;;3.78;1.20;;;10.30;90.90;;;;;;5054555;28;20045;-61
2022/02/08 21:57:17;;;;;;;3.70;1.27;;;10.30;91.00;;;;;;5056250;28;20037;-58
2022/02/08 21:59:44;;;;;;;6.05;1.30;;;10.30;91.00;;;;;;5054657;28;20053;-56
2022/02/08 22:02:13;;;;;;;3.40;1.20;;;10.30;91.00;;;;;;5053102;28;20071;-52
2022/02/08 22:04:39;;;;;;;6.00;1.27;;;10.20;91.10;;;;;;5055382;28;20056;-57
2022/02/08 22:07:12;;;;;;;4.13;1.65;;;10.20;91.10;;;;;;5054358;28;20041;-56
2022/02/08 22:09:41;;;;;;;4.93;1.60;;;10.20;91.20;;;;;;5059843;28;20049;-60
2022/02/08 22:33:58;;;;;;;8.20;1.30;;;10.10;91.50;;;;;;5061092;28;20032;-60
2022/02/08 22:36:31;;;;;;;4.25;1.20;;;10.10;91.50;;;;;;5055156;28;20041;-62
2022/02/08 22:39:11;;;;;;;3.38;1.05;;;10.10;91.50;;;;;;5056555;28;20071;-59
2022/02/08 22:41:55;;;;;;;3.15;1.00;;;10.10;91.50;;;;;;5053940;28;20411;-54
2022/02/08 22:44:42;;;;;;;2.85;1.10;;;10.10;91.50;;;;;;5052858;28;20049;-57
2022/02/08 22:47:09;;;;;;;2.88;0.90;;;10.10;91.50;;;;;;5052910;28;20061;-58
2022/02/08 22:49:36;;;;;;;3.95;0.90;;;10.10;91.40;;;;;;5054215;28;20493;-61
2022/02/08 22:52:04;;;;;;;3.35;0.90;;;10.10;91.40;;;;;;5057239;28;20044;-63
2022/02/08 22:54:31;;;;;;;3.75;1.10;;;10.10;91.40;;;;;;5053593;28;20037;-58
2022/02/08 22:57:03;;;;;;;6.00;1.10;;;10.20;91.60;;;;;;5056637;28;20079;-58
2022/02/08 22:59:29;;;;;;;2.05;0.88;;;10.10;91.80;;;;;;5054146;28;20033;-62
2022/02/08 23:01:57;;;;;;;4.32;0.80;;;10.10;92.20;;;;;;5054068;28;20068;-62
2022/02/08 23:04:27;;;;;;;4.30;1.10;;;10.00;92.90;;;;;;5057819;28;20095;-59
